Time;durP1;ratioP1;P1;durP2;ratioP2;P2;SDS_P1;SDS_P2;PMS_P1;PMS_P2;Temp;Humidity;BMP_temperature;BMP_pressure;BME280_temperature;BME280_humidity;BME280_pressure;Samples;Min_cycle;Max_cycle;Signal;HPM_P1;HPM_P2
2023/04/19 00:01:28;;;;;;;15.07;10.85;;;;;;;;;;4981771;28;20053;-75
2023/04/19 00:03:55;;;;;;;17.90;12.57;;;;;;;;;;4988668;28;20054;-75
2023/04/19 00:06:23;;;;;;;17.17;11.60;;;;;;;;;;4988844;28;20491;-74
2023/04/19 00:08:50;;;;;;;15.77;11.35;;;;;;;;;;4991960;28;20058;-75
2023/04/19 00:11:16;;;;;;;14.82;11.45;;;;;;;;;;4976690;28;20065;-75
2023/04/19 00:13:43;;;;;;;15.00;10.10;;;;;;;;;;4993613;28;20046;-75
2023/04/19 00:16:10;;;;;;;17.58;10.88;;;;;;;;;;4994402;28;20050;-74
2023/04/19 00:18:37;;;;;;;15.05;11.27;;;;;;;;;;4988296;28;20410;-75
2023/04/19 00:21:04;;;;;;;16.13;10.50;;;;;;;;;;4995882;28;20073;-75
2023/04/19 00:23:31;;;;;;;20.27;11.52;;;;;;;;;;4996056;28;20060;-75
2023/04/19 00:25:58;;;;;;;17.63;11.27;;;;;;;;;;4988128;28;20049;-75
2023/04/19 00:28:25;;;;;;;16.10;11.15;;;;;;;;;;4996049;28;20109;-75
2023/04/19 00:30:51;;;;;;;22.38;11.70;;;;;;;;;;4982773;28;20134;-74
2023/04/19 00:33:18;;;;;;;17.83;12.05;;;;;;;;;;4992544;28;20065;-75
2023/04/19 00:35:45;;;;;;;17.58;11.43;;;;;;;;;;4992419;28;20057;-75
2023/04/19 00:38:11;;;;;;;17.70;11.75;;;;;;;;;;4992351;28;20097;-74
2023/04/19 00:40:38;;;;;;;16.20;11.48;;;;;;;;;;4994418;28;20054;-75
2023/04/19 00:43:05;;;;;;;16.80;11.63;;;;;;;;;;4995692;28;20645;-75
2023/04/19 00:45:32;;;;;;;16.15;11.38;;;;;;;;;;4986200;28;20065;-75
2023/04/19 00:47:59;;;;;;;16.85;11.30;;;;;;;;;;4995534;28;20100;-75
2023/04/19 00:50:26;;;;;;;17.65;11.25;;;;;;;;;;4977734;28;20062;-75
2023/04/19 00:52:53;;;;;;;19.75;12.43;;;;;;;;;;4985330;28;20647;-76
2023/04/19 00:55:20;;;;;;;16.58;11.43;;;;;;;;;;4960128;28;20396;-75
2023/04/19 00:57:47;;;;;;;18.95;12.40;;;;;;;;;;4987379;28;20054;-75
2023/04/19 01:00:14;;;;;;;17.10;12.05;;;;;;;;;;5004077;28;20061;-75
2023/04/19 01:02:41;;;;;;;20.17;12.45;;;;;;;;;;4994882;28;20054;-75
2023/04/19 01:05:08;;;;;;;20.67;11.93;;;;;;;;;;4980341;28;20076;-74
2023/04/19 01:07:35;;;;;;;17.67;11.75;;;;;;;;;;4961845;28;20049;-75
2023/04/19 01:10:02;;;;;;;19.00;11.88;;;;;;;;;;4993329;28;20054;-75
2023/04/19 01:12:29;;;;;;;17.10;11.30;;;;;;;;;;4995205;28;20650;-75
2023/04/19 01:14:55;;;;;;;16.48;11.63;;;;;;;;;;4995179;28;20049;-76
2023/04/19 01:17:22;;;;;;;14.73;10.73;;;;;;;;;;5012369;28;20054;-75
2023/04/19 01:19:49;;;;;;;17.30;11.80;;;;;;;;;;4974944;28;20054;-75
2023/04/19 01:22:18;;;;;;;18.17;11.05;;;;;;;;;;4975056;28;20054;-75
2023/04/19 01:24:45;;;;;;;19.85;12.93;;;;;;;;;;4974804;28;20050;-76
2023/04/19 01:27:12;;;;;;;20.50;13.30;;;;;;;;;;4988832;28;20445;-75
2023/04/19 01:29:39;;;;;;;18.33;11.75;;;;;;;;;;4960355;28;20060;-75
2023/04/19 01:32:06;;;;;;;16.33;11.38;;;;;;;;;;4976603;28;20065;-75
2023/04/19 01:34:33;;;;;;;17.58;11.43;;;;;;;;;;4991454;28;20054;-75
2023/04/19 01:37:00;;;;;;;18.23;12.25;;;;;;;;;;4995091;28;20053;-75
2023/04/19 01:39:27;;;;;;;16.60;11.52;;;;;;;;;;4994240;28;20080;-75
2023/04/19 01:41:53;;;;;;;16.55;12.10;;;;;;;;;;4994410;28;20045;-75
2023/04/19 01:44:20;;;;;;;15.85;11.80;;;;;;;;;;5008731;28;20058;-75
2023/04/19 01:46:47;;;;;;;20.02;12.43;;;;;;;;;;4975213;28;20050;-74
2023/04/19 01:49:13;;;;;;;18.73;12.02;;;;;;;;;;4976222;28;20104;-74
2023/04/19 01:51:40;;;;;;;17.67;12.18;;;;;;;;;;4976955;28;20494;-74
2023/04/19 01:54:07;;;;;;;19.23;11.95;;;;;;;;;;4993618;28;20086;-75
2023/04/19 01:56:33;;;;;;;20.52;13.48;;;;;;;;;;4991150;28;20096;-75
2023/04/19 01:59:00;;;;;;;18.42;12.55;;;;;;;;;;4992374;28;20057;-75
2023/04/19 02:01:27;;;;;;;16.80;12.00;;;;;;;;;;4994168;28;20053;-75
2023/04/19 02:03:54;;;;;;;18.15;11.88;;;;;;;;;;4975443;28;20061;-75
2023/04/19 02:06:21;;;;;;;19.52;12.45;;;;;;;;;;4989300;28;20146;-75
2023/04/19 02:08:47;;;;;;;16.98;13.15;;;;;;;;;;4993799;28;20054;-75
2023/04/19 02:11:14;;;;;;;18.13;13.20;;;;;;;;;;4974437;28;20050;-76
2023/04/19 02:13:41;;;;;;;16.10;11.68;;;;;;;;;;4974767;28;20699;-76
2023/04/19 02:16:09;;;;;;;19.15;12.82;;;;;;;;;;4977582;28;20465;-75
2023/04/19 02:18:40;;;;;;;17.63;12.35;;;;;;;;;;4977548;28;20065;-75
2023/04/19 02:21:08;;;;;;;18.10;12.57;;;;;;;;;;4974878;28;20499;-75
2023/04/19 02:23:35;;;;;;;19.35;13.25;;;;;;;;;;4974471;28;20422;-76
2023/04/19 02:26:02;;;;;;;18.13;11.88;;;;;;;;;;4978866;28;20498;-75
2023/04/19 02:28:29;;;;;;;17.52;12.73;;;;;;;;;;4993643;28;20087;-76
2023/04/19 02:30:57;;;;;;;18.60;14.00;;;;;;;;;;4990118;28;20525;-76
2023/04/19 02:33:24;;;;;;;20.67;13.05;;;;;;;;;;4974247;28;20581;-75
2023/04/19 02:35:51;;;;;;;17.27;12.55;;;;;;;;;;4974413;28;20054;-76
2023/04/19 02:38:18;;;;;;;18.25;12.70;;;;;;;;;;4993804;28;20507;-76
2023/04/19 02:40:44;;;;;;;16.40;12.18;;;;;;;;;;4976987;28;20502;-76
2023/04/19 02:43:11;;;;;;;18.45;12.65;;;;;;;;;;4992827;28;20391;-76
2023/04/19 02:45:38;;;;;;;21.05;13.10;;;;;;;;;;4993412;28;20045;-76
2023/04/19 02:48:05;;;;;;;17.88;12.98;;;;;;;;;;4977379;28;20062;-76
2023/04/19 02:50:32;;;;;;;17.98;13.50;;;;;;;;;;4997365;28;20062;-76
2023/04/19 02:52:58;;;;;;;17.65;12.38;;;;;;;;;;4983605;28;20069;-75
2023/04/19 02:55:26;;;;;;;15.75;12.27;;;;;;;;;;4983977;28;20529;-76
2023/04/19 02:57:52;;;;;;;19.10;12.75;;;;;;;;;;4989960;28;20056;-76
2023/04/19 03:00:19;;;;;;;16.98;11.77;;;;;;;;;;4974618;28;20411;-76
2023/04/19 03:02:46;;;;;;;18.05;13.02;;;;;;;;;;4973757;28;20426;-76
2023/04/19 03:05:12;;;;;;;18.13;13.07;;;;;;;;;;4984426;28;20058;-76
2023/04/19 03:07:39;;;;;;;17.40;12.70;;;;;;;;;;4992806;28;20064;-76
2023/04/19 03:10:09;;;;;;;18.00;13.25;;;;;;;;;;4977157;28;20502;-76
2023/04/19 03:12:36;;;;;;;17.35;13.05;;;;;;;;;;5000385;28;20142;-77
2023/04/19 03:15:03;;;;;;;18.45;12.63;;;;;;;;;;4978865;28;20123;-76
2023/04/19 03:17:29;;;;;;;19.83;13.88;;;;;;;;;;5010732;28;20057;-76
2023/04/19 03:19:56;;;;;;;18.25;13.50;;;;;;;;;;5002008;28;20108;-77
2023/04/19 03:22:23;;;;;;;20.13;13.50;;;;;;;;;;4957526;28;20057;-76
2023/04/19 03:24:49;;;;;;;20.85;12.93;;;;;;;;;;4985007;28;20062;-76
2023/04/19 03:27:16;;;;;;;17.98;12.95;;;;;;;;;;4986707;28;20060;-76
2023/04/19 03:29:43;;;;;;;17.42;12.80;;;;;;;;;;4992597;28;20618;-76
2023/04/19 03:32:09;;;;;;;16.95;11.80;;;;;;;;;;4976491;28;20089;-77
2023/04/19 03:34:36;;;;;;;18.80;13.35;;;;;;;;;;4992614;28;20061;-75
2023/04/19 03:37:03;;;;;;;18.35;12.38;;;;;;;;;;4992985;28;20050;-75
2023/04/19 03:39:30;;;;;;;17.70;13.00;;;;;;;;;;4981239;28;20057;-75
2023/04/19 03:41:57;;;;;;;19.90;12.77;;;;;;;;;;4989352;28;20057;-75
2023/04/19 03:44:24;;;;;;;17.52;12.50;;;;;;;;;;4977721;28;20057;-75
2023/04/19 03:46:50;;;;;;;18.33;13.40;;;;;;;;;;4978107;28;20060;-76
2023/04/19 03:49:17;;;;;;;17.98;12.63;;;;;;;;;;4989507;28;20084;-76
2023/04/19 03:51:44;;;;;;;19.08;14.10;;;;;;;;;;4957159;28;20058;-76
2023/04/19 03:54:11;;;;;;;18.48;13.18;;;;;;;;;;4988052;28;20046;-75
2023/04/19 03:56:37;;;;;;;16.52;12.07;;;;;;;;;;4992528;28;20521;-75
2023/04/19 03:59:04;;;;;;;20.38;14.10;;;;;;;;;;4992937;28;20514;-76
2023/04/19 04:01:31;;;;;;;20.38;14.27;;;;;;;;;;5009826;28;20045;-77
2023/04/19 04:03:57;;;;;;;18.80;14.38;;;;;;;;;;4992227;28;20659;-76
2023/04/19 04:06:26;;;;;;;20.80;14.10;;;;;;;;;;4974117;28;20203;-80
2023/04/19 04:08:53;;;;;;;21.00;15.10;;;;;;;;;;4968445;28;20065;-77
2023/04/19 04:11:20;;;;;;;19.23;14.18;;;;;;;;;;4980448;28;20049;-77
2023/04/19 04:13:48;;;;;;;17.60;14.15;;;;;;;;;;4976704;28;20064;-76
2023/04/19 04:16:15;;;;;;;21.02;14.77;;;;;;;;;;4971343;28;20050;-77
2023/04/19 04:18:41;;;;;;;19.33;13.52;;;;;;;;;;4978979;28;20561;-78
2023/04/19 04:21:08;;;;;;;20.23;15.05;;;;;;;;;;4979633;28;20502;-77
2023/04/19 04:23:36;;;;;;;21.67;15.50;;;;;;;;;;4992851;28;20081;-77
2023/04/19 04:26:04;;;;;;;19.40;13.90;;;;;;;;;;4973084;28;20050;-77
2023/04/19 04:28:31;;;;;;;21.58;14.95;;;;;;;;;;4965111;28;20050;-77
2023/04/19 04:30:59;;;;;;;21.13;14.52;;;;;;;;;;4991970;28;20454;-76
2023/04/19 04:33:29;;;;;;;23.27;15.60;;;;;;;;;;4997030;28;20058;-76
2023/04/19 04:35:57;;;;;;;20.55;14.52;;;;;;;;;;4978497;28;20387;-76
2023/04/19 04:38:24;;;;;;;21.67;16.40;;;;;;;;;;4993675;28;20082;-76
2023/04/19 04:40:52;;;;;;;19.92;14.50;;;;;;;;;;4972193;28;20061;-76
2023/04/19 04:43:22;;;;;;;22.30;15.23;;;;;;;;;;4984773;28;20136;-76
2023/04/19 04:45:49;;;;;;;22.67;14.85;;;;;;;;;;4972599;28;20057;-77
2023/04/19 04:48:16;;;;;;;22.55;14.23;;;;;;;;;;5018602;28;20060;-77
2023/04/19 04:50:43;;;;;;;20.95;15.15;;;;;;;;;;4978772;28;20050;-77
2023/04/19 04:53:11;;;;;;;20.98;15.23;;;;;;;;;;4987618;28;20065;-76
2023/04/19 04:55:38;;;;;;;19.75;13.95;;;;;;;;;;4991530;28;20557;-77
2023/04/19 04:58:06;;;;;;;19.13;15.27;;;;;;;;;;4991581;28;20050;-78
2023/04/19 05:00:33;;;;;;;19.40;13.95;;;;;;;;;;4985948;28;20053;-77
2023/04/19 05:03:01;;;;;;;21.50;13.80;;;;;;;;;;4962873;28;20062;-76
2023/04/19 05:05:28;;;;;;;20.02;14.45;;;;;;;;;;4977352;28;20137;-77
2023/04/19 05:07:55;;;;;;;22.65;14.07;;;;;;;;;;4976657;28;20061;-77
2023/04/19 05:10:22;;;;;;;19.73;14.18;;;;;;;;;;4992657;28;20061;-79
2023/04/19 05:12:48;;;;;;;21.77;14.80;;;;;;;;;;4974735;28;20437;-80
2023/04/19 05:15:15;;;;;;;17.25;13.15;;;;;;;;;;5005728;28;20069;-78
2023/04/19 05:17:42;;;;;;;19.45;15.10;;;;;;;;;;5021639;28;20074;-79
2023/04/19 05:20:09;;;;;;;20.77;14.25;;;;;;;;;;5037242;28;20060;-79
2023/04/19 05:22:36;;;;;;;19.58;14.05;;;;;;;;;;5003953;28;20061;-79
2023/04/19 05:25:04;;;;;;;21.10;13.15;;;;;;;;;;5003801;28;20096;-79
2023/04/19 05:27:31;;;;;;;21.20;14.00;;;;;;;;;;5002266;28;20342;-79
2023/04/19 05:29:57;;;;;;;21.00;14.25;;;;;;;;;;4983467;28;20061;-78
2023/04/19 05:32:25;;;;;;;23.25;15.73;;;;;;;;;;5005940;28;20054;-79
2023/04/19 05:34:51;;;;;;;25.30;16.55;;;;;;;;;;4989534;28;20053;-79
2023/04/19 05:37:18;;;;;;;25.88;15.88;;;;;;;;;;4996890;28;20064;-79
2023/04/19 05:39:45;;;;;;;20.92;14.75;;;;;;;;;;5020014;28;20575;-79
2023/04/19 05:42:12;;;;;;;22.55;16.10;;;;;;;;;;4997842;28;20054;-79
2023/04/19 05:44:39;;;;;;;22.45;14.30;;;;;;;;;;4999768;28;20077;-80
2023/04/19 05:47:06;;;;;;;20.80;14.85;;;;;;;;;;4968496;28;20050;-80
2023/04/19 05:49:32;;;;;;;17.42;12.52;;;;;;;;;;4985028;28;20141;-80
2023/04/19 05:51:59;;;;;;;18.30;13.60;;;;;;;;;;5001568;28;20065;-78
2023/04/19 05:54:26;;;;;;;17.27;12.60;;;;;;;;;;4988943;28;20058;-79
2023/04/19 05:56:53;;;;;;;17.38;12.68;;;;;;;;;;5005553;28;20757;-79
2023/04/19 05:59:20;;;;;;;14.50;11.80;;;;;;;;;;4973456;28;20060;-80
2023/04/19 06:01:47;;;;;;;15.68;11.77;;;;;;;;;;4949460;28;20503;-74
2023/04/19 06:04:13;;;;;;;17.50;12.07;;;;;;;;;;4991258;28;20141;-73
2023/04/19 06:06:41;;;;;;;14.73;11.38;;;;;;;;;;4986012;28;20106;-73
2023/04/19 06:09:08;;;;;;;20.90;11.23;;;;;;;;;;5012512;28;20080;-72
2023/04/19 06:11:34;;;;;;;17.38;11.55;;;;;;;;;;4999730;28;20058;-72
2023/04/19 06:14:15;;;;;;;15.23;11.48;;;;;;;;;;4999339;28;20461;-75
2023/04/19 06:16:43;;;;;;;16.67;11.73;;;;;;;;;;4997408;28;20552;-76
2023/04/19 06:19:10;;;;;;;13.13;10.02;;;;;;;;;;4996655;28;20054;-75
2023/04/19 06:21:36;;;;;;;15.73;10.55;;;;;;;;;;5000778;28;20510;-74
2023/04/19 06:24:05;;;;;;;16.67;10.73;;;;;;;;;;4992513;28;20060;-75
2023/04/19 06:26:32;;;;;;;16.95;10.73;;;;;;;;;;5001711;28;20045;-75
2023/04/19 06:28:59;;;;;;;19.50;10.57;;;;;;;;;;5000954;28;20154;-74
2023/04/19 06:31:25;;;;;;;14.18;10.10;;;;;;;;;;4957918;28;20053;-75
2023/04/19 06:33:52;;;;;;;13.32;9.98;;;;;;;;;;4983330;28;20109;-75
2023/04/19 06:36:19;;;;;;;16.63;10.63;;;;;;;;;;5000657;28;20057;-76
2023/04/19 06:38:46;;;;;;;13.43;9.90;;;;;;;;;;5006348;28;20057;-75
2023/04/19 06:41:18;;;;;;;13.25;10.90;;;;;;;;;;4992259;28;20145;-75
2023/04/19 06:43:45;;;;;;;14.25;10.45;;;;;;;;;;5009644;28;20607;-74
2023/04/19 06:46:15;;;;;;;15.40;10.77;;;;;;;;;;4965081;28;20066;-75
2023/04/19 06:48:42;;;;;;;15.40;10.90;;;;;;;;;;5000448;28;20054;-75
2023/04/19 06:51:08;;;;;;;15.40;11.30;;;;;;;;;;4992359;28;20075;-76
2023/04/19 06:53:36;;;;;;;15.23;11.45;;;;;;;;;;4991802;28;20457;-75
2023/04/19 06:56:03;;;;;;;16.70;11.88;;;;;;;;;;4975912;28;20491;-76
2023/04/19 06:58:33;;;;;;;19.35;11.98;;;;;;;;;;4992034;28;20144;-75
2023/04/19 07:01:03;;;;;;;17.17;11.27;;;;;;;;;;4991842;28;20855;-76
2023/04/19 07:03:30;;;;;;;17.10;11.70;;;;;;;;;;4994817;28;20131;-74
2023/04/19 07:05:57;;;;;;;16.15;12.23;;;;;;;;;;4994004;28;20105;-77
2023/04/19 07:08:24;;;;;;;17.25;11.60;;;;;;;;;;4982812;28;20062;-74
2023/04/19 07:11:04;;;;;;;17.13;11.10;;;;;;;;;;4981427;28;20046;-73
2023/04/19 07:13:31;;;;;;;12.35;10.10;;;;;;;;;;5010986;28;20053;-74
2023/04/19 07:15:58;;;;;;;13.10;10.43;;;;;;;;;;4993470;28;20510;-75
2023/04/19 07:18:24;;;;;;;14.07;10.48;;;;;;;;;;5000930;28;20057;-75
2023/04/19 07:20:51;;;;;;;15.73;10.27;;;;;;;;;;4993455;28;20065;-75
2023/04/19 07:23:18;;;;;;;16.90;10.90;;;;;;;;;;4993152;28;20054;-75
2023/04/19 07:25:45;;;;;;;13.38;9.65;;;;;;;;;;4978518;28;20050;-75
2023/04/19 07:28:12;;;;;;;13.27;10.27;;;;;;;;;;4974100;28;20517;-74
2023/04/19 07:30:38;;;;;;;14.65;10.95;;;;;;;;;;4973537;28;20062;-74
2023/04/19 07:33:07;;;;;;;12.15;9.43;;;;;;;;;;4978815;28;20045;-75
2023/04/19 07:35:34;;;;;;;14.63;9.20;;;;;;;;;;4990218;28;20060;-75
2023/04/19 07:38:01;;;;;;;12.02;9.32;;;;;;;;;;4999817;28;20498;-75
2023/04/19 07:40:28;;;;;;;12.13;9.50;;;;;;;;;;4995849;28;20124;-75
2023/04/19 07:42:55;;;;;;;11.25;8.70;;;;;;;;;;4992019;28;20057;-74
2023/04/19 07:45:22;;;;;;;10.23;8.40;;;;;;;;;;4992248;28;20065;-75
2023/04/19 07:47:49;;;;;;;10.77;8.50;;;;;;;;;;4959752;28;20050;-73
2023/04/19 07:50:16;;;;;;;9.60;8.30;;;;;;;;;;4988484;28;20058;-76
2023/04/19 07:52:43;;;;;;;11.82;7.90;;;;;;;;;;4960311;28;20049;-75
2023/04/19 07:55:10;;;;;;;11.43;8.48;;;;;;;;;;4992449;28;20085;-75
2023/04/19 07:57:36;;;;;;;10.90;8.27;;;;;;;;;;4991994;28;20050;-75
2023/04/19 08:00:04;;;;;;;9.38;7.63;;;;;;;;;;4992113;28;20061;-80
2023/04/19 08:02:30;;;;;;;9.52;7.93;;;;;;;;;;4956813;28;20050;-74
2023/04/19 08:04:57;;;;;;;10.88;7.30;;;;;;;;;;4972779;28;20054;-73
2023/04/19 08:07:25;;;;;;;10.18;7.50;;;;;;;;;;4972735;28;20132;-74
2023/04/19 08:09:51;;;;;;;8.63;6.65;;;;;;;;;;4956731;28;20116;-73
2023/04/19 08:12:18;;;;;;;9.98;7.63;;;;;;;;;;4972433;28;20050;-73
2023/04/19 08:15:00;;;;;;;12.48;7.32;;;;;;;;;;4964421;28;20050;-78
2023/04/19 08:17:45;;;;;;;9.38;7.75;;;;;;;;;;5003062;28;20144;-75
2023/04/19 08:20:13;;;;;;;9.18;7.25;;;;;;;;;;4975158;28;20065;-74
2023/04/19 08:22:40;;;;;;;10.68;7.90;;;;;;;;;;4989205;28;20054;-74
2023/04/19 08:25:08;;;;;;;11.02;7.63;;;;;;;;;;4992641;28;20069;-74
2023/04/19 08:27:34;;;;;;;11.40;7.93;;;;;;;;;;4973043;28;20078;-74
2023/04/19 08:30:02;;;;;;;8.85;7.10;;;;;;;;;;4993419;28;20062;-75
2023/04/19 08:32:29;;;;;;;9.98;7.47;;;;;;;;;;4982317;28;20096;-74
2023/04/19 08:34:56;;;;;;;9.98;7.20;;;;;;;;;;4995937;28;20054;-75
2023/04/19 08:37:23;;;;;;;7.55;6.45;;;;;;;;;;4994971;28;20049;-74
2023/04/19 08:39:50;;;;;;;8.85;7.30;;;;;;;;;;4981151;28;20058;-75
2023/04/19 08:42:17;;;;;;;11.73;7.07;;;;;;;;;;4998247;28;20058;-78
2023/04/19 08:44:50;;;;;;;9.18;7.40;;;;;;;;;;4992983;28;20054;-77
2023/04/19 08:47:38;;;;;;;7.43;6.55;;;;;;;;;;4998519;28;20556;-77
2023/04/19 08:50:08;;;;;;;11.70;7.25;;;;;;;;;;5011887;28;20068;-75
2023/04/19 08:52:54;;;;;;;7.65;6.72;;;;;;;;;;5012113;28;20049;-75
2023/04/19 08:55:31;;;;;;;10.23;7.10;;;;;;;;;;4982392;28;20429;-75
2023/04/19 08:57:57;;;;;;;7.25;6.55;;;;;;;;;;4988569;28;20564;-75
2023/04/19 09:00:24;;;;;;;9.50;7.22;;;;;;;;;;4959913;28;20518;-75
2023/04/19 09:02:53;;;;;;;9.38;7.32;;;;;;;;;;4993362;28;20058;-73
2023/04/19 09:05:21;;;;;;;8.57;7.45;;;;;;;;;;4975827;28;20058;-73
2023/04/19 09:07:48;;;;;;;11.77;8.35;;;;;;;;;;4960486;28;20089;-73
2023/04/19 09:10:19;;;;;;;10.55;7.80;;;;;;;;;;4975714;28;20687;-73
2023/04/19 09:13:00;;;;;;;10.13;8.35;;;;;;;;;;4985245;28;20056;-73
2023/04/19 09:15:36;;;;;;;10.18;8.27;;;;;;;;;;4971338;28;20050;-74
2023/04/19 09:18:05;;;;;;;11.82;8.18;;;;;;;;;;4988427;28;20133;-73
2023/04/19 09:20:39;;;;;;;11.25;8.40;;;;;;;;;;5006779;28;20053;-74
2023/04/19 09:23:08;;;;;;;10.70;9.05;;;;;;;;;;4996232;28;20050;-73
2023/04/19 09:25:35;;;;;;;12.02;7.85;;;;;;;;;;4994914;28;20054;-73
2023/04/19 09:28:22;;;;;;;9.43;7.82;;;;;;;;;;4997628;28;20525;-73
2023/04/19 09:30:50;;;;;;;10.13;7.60;;;;;;;;;;4995235;28;20058;-74
2023/04/19 09:33:38;;;;;;;9.65;7.68;;;;;;;;;;4995618;28;20062;-73
2023/04/19 09:36:06;;;;;;;10.23;7.68;;;;;;;;;;4995855;28;20058;-74
2023/04/19 09:38:52;;;;;;;8.20;6.80;;;;;;;;;;4995413;28;20045;-73
2023/04/19 09:41:19;;;;;;;9.68;7.65;;;;;;;;;;4987771;28;20058;-74
2023/04/19 09:43:46;;;;;;;11.98;7.68;;;;;;;;;;4993828;28;20062;-74
2023/04/19 09:46:44;;;;;;;9.27;7.43;;;;;;;;;;4993757;28;20137;-74
2023/04/19 09:49:15;;;;;;;10.52;7.78;;;;;;;;;;5006888;28;20080;-74
2023/04/19 09:51:48;;;;;;;8.15;6.65;;;;;;;;;;4992193;28;20096;-75
2023/04/19 09:54:18;;;;;;;6.72;5.68;;;;;;;;;;4975085;28;20058;-75
2023/04/19 09:56:45;;;;;;;8.77;5.85;;;;;;;;;;4975384;28;20426;-73
2023/04/19 09:59:11;;;;;;;7.70;5.85;;;;;;;;;;4991192;28;20058;-74
2023/04/19 10:01:53;;;;;;;7.40;6.25;;;;;;;;;;4996900;28;20108;-73
2023/04/19 10:04:20;;;;;;;7.57;5.90;;;;;;;;;;5011138;28;20053;-73
2023/04/19 10:07:07;;;;;;;7.88;6.22;;;;;;;;;;4995800;28;20054;-73
2023/04/19 10:09:55;;;;;;;9.82;7.10;;;;;;;;;;4977730;28;20125;-73
2023/04/19 10:12:37;;;;;;;;;;;;;;;;;;4962924;28;20112;-74
2023/04/19 10:15:24;;;;;;;9.65;6.68;;;;;;;;;;4995675;28;19922;-75
2023/04/19 10:17:52;;;;;;;12.57;7.50;;;;;;;;;;4968067;28;20096;-76
2023/04/19 10:20:24;;;;;;;8.48;7.57;;;;;;;;;;4992851;28;20050;-75
2023/04/19 10:22:51;;;;;;;9.67;7.43;;;;;;;;;;4973717;28;20085;-75
2023/04/19 10:25:18;;;;;;;10.30;7.63;;;;;;;;;;4981331;28;20068;-73
2023/04/19 10:27:45;;;;;;;8.48;7.05;;;;;;;;;;5001287;28;20061;-74
2023/04/19 10:30:17;;;;;;;9.27;7.32;;;;;;;;;;5025055;28;20068;-73
2023/04/19 10:32:45;;;;;;;10.10;7.28;;;;;;;;;;4984080;28;20528;-73
2023/04/19 10:35:21;;;;;;;10.55;7.75;;;;;;;;;;4992947;28;20054;-73
2023/04/19 10:38:07;;;;;;;9.02;7.47;;;;;;;;;;4992742;28;20054;-74
2023/04/19 10:40:59;;;;;;;11.20;7.53;;;;;;;;;;4992692;28;20058;-75
2023/04/19 10:43:28;;;;;;;8.70;7.38;;;;;;;;;;4996827;28;20061;-74
2023/04/19 10:45:59;;;;;;;8.52;6.72;;;;;;;;;;4976356;28;20112;-74
2023/04/19 10:48:29;;;;;;;9.38;6.93;;;;;;;;;;4989710;28;20078;-74
2023/04/19 10:51:15;;;;;;;10.20;6.60;;;;;;;;;;4972614;28;20085;-76
2023/04/19 10:53:58;;;;;;;10.43;7.10;;;;;;;;;;4952652;28;20062;-75
2023/04/19 10:56:33;;;;;;;;;;;;;;;;;;4991894;28;20054;-74
2023/04/19 10:59:10;;;;;;;10.82;7.05;;;;;;;;;;4996453;28;19961;-74
2023/04/19 11:01:38;;;;;;;10.35;7.30;;;;;;;;;;4995513;28;20069;-75
2023/04/19 11:04:06;;;;;;;8.88;6.90;;;;;;;;;;5008482;28;20140;-75
2023/04/19 11:06:34;;;;;;;9.52;6.97;;;;;;;;;;5008840;28;20049;-74
2023/04/19 11:09:04;;;;;;;9.15;7.20;;;;;;;;;;4994563;28;20509;-74
2023/04/19 11:11:34;;;;;;;10.13;8.13;;;;;;;;;;4993000;28;20192;-74
2023/04/19 11:14:03;;;;;;;10.95;8.13;;;;;;;;;;4999551;28;20053;-74
2023/04/19 11:16:30;;;;;;;10.45;7.53;;;;;;;;;;4985948;28;20058;-75
2023/04/19 11:19:20;;;;;;;10.68;7.90;;;;;;;;;;5002723;28;20471;-73
2023/04/19 11:21:48;;;;;;;11.55;8.77;;;;;;;;;;5008447;28;20057;-74
2023/04/19 11:24:17;;;;;;;14.25;8.63;;;;;;;;;;5003660;28;20060;-73
2023/04/19 11:26:45;;;;;;;11.75;8.70;;;;;;;;;;5008310;28;20057;-74
2023/04/19 11:29:12;;;;;;;13.43;9.38;;;;;;;;;;5007050;28;20061;-73
2023/04/19 11:31:39;;;;;;;14.25;9.45;;;;;;;;;;4994747;28;20061;-75
2023/04/19 11:34:06;;;;;;;11.73;8.93;;;;;;;;;;5000892;28;20322;-74
2023/04/19 11:36:35;;;;;;;12.43;9.23;;;;;;;;;;5007121;28;20054;-76
2023/04/19 11:39:05;;;;;;;13.63;9.70;;;;;;;;;;5015503;28;20045;-74
2023/04/19 11:41:39;;;;;;;14.38;10.38;;;;;;;;;;5008596;28;20049;-75
2023/04/19 11:44:25;;;;;;;15.20;12.15;;;;;;;;;;4992601;28;20057;-74
2023/04/19 11:47:02;;;;;;;17.58;11.70;;;;;;;;;;4989058;28;20053;-75
2023/04/19 11:49:30;;;;;;;14.70;11.18;;;;;;;;;;4995620;28;20096;-75
2023/04/19 11:52:01;;;;;;;18.15;13.00;;;;;;;;;;4992303;28;20069;-74
2023/04/19 11:54:31;;;;;;;17.35;12.77;;;;;;;;;;4992927;28;20053;-74
2023/04/19 11:57:05;;;;;;;16.38;14.15;;;;;;;;;;4992602;28;20572;-75
2023/04/19 11:59:33;;;;;;;17.08;13.30;;;;;;;;;;4983524;28;20054;-75
2023/04/19 12:02:11;;;;;;;18.42;13.68;;;;;;;;;;4979406;28;20056;-79
2023/04/19 12:04:38;;;;;;;19.85;13.07;;;;;;;;;;4961845;28;20058;-73
2023/04/19 12:07:06;;;;;;;16.80;13.68;;;;;;;;;;4972470;28;20054;-75
2023/04/19 12:09:34;;;;;;;17.08;14.23;;;;;;;;;;4972717;28;20105;-75
2023/04/19 12:12:01;;;;;;;19.73;14.73;;;;;;;;;;4985915;28;20077;-75
2023/04/19 12:14:29;;;;;;;22.52;14.50;;;;;;;;;;4992368;28;20054;-75
2023/04/19 12:17:06;;;;;;;21.90;15.23;;;;;;;;;;4992108;28;20049;-74
2023/04/19 12:19:45;;;;;;;23.08;15.18;;;;;;;;;;4992817;28;20139;-74
2023/04/19 12:22:14;;;;;;;22.88;15.65;;;;;;;;;;4992608;28;20521;-74
2023/04/19 12:24:41;;;;;;;21.08;14.95;;;;;;;;;;4990992;28;20512;-74
2023/04/19 12:27:08;;;;;;;20.60;15.25;;;;;;;;;;4989468;28;20054;-74
2023/04/19 12:29:36;;;;;;;22.63;14.98;;;;;;;;;;5000453;28;20823;-73
2023/04/19 12:32:04;;;;;;;18.17;13.85;;;;;;;;;;4991935;28;20485;-74
2023/04/19 12:34:30;;;;;;;19.70;14.02;;;;;;;;;;4959242;28;20470;-74
2023/04/19 12:36:57;;;;;;;23.13;15.68;;;;;;;;;;4960196;28;20089;-74
2023/04/19 12:39:24;;;;;;;20.88;13.65;;;;;;;;;;4992173;28;20073;-74
2023/04/19 12:41:51;;;;;;;19.90;14.43;;;;;;;;;;4991816;28;20060;-74
2023/04/19 12:44:18;;;;;;;22.00;14.63;;;;;;;;;;4992020;28;20104;-74
2023/04/19 12:46:44;;;;;;;20.73;13.27;;;;;;;;;;4983847;28;20050;-74
2023/04/19 12:49:11;;;;;;;19.73;12.00;;;;;;;;;;4992266;28;20054;-74
2023/04/19 12:51:38;;;;;;;18.92;12.88;;;;;;;;;;4991956;28;20050;-75
2023/04/19 12:54:06;;;;;;;17.10;11.82;;;;;;;;;;4975761;28;20506;-74
2023/04/19 12:56:33;;;;;;;15.80;10.88;;;;;;;;;;4992814;28;20061;-75
2023/04/19 12:59:00;;;;;;;16.80;11.38;;;;;;;;;;4992130;28;20646;-74
2023/04/19 13:01:27;;;;;;;17.70;10.98;;;;;;;;;;4975775;28;20058;-75
2023/04/19 13:03:54;;;;;;;18.33;12.15;;;;;;;;;;4991912;28;20054;-74
2023/04/19 13:06:25;;;;;;;15.05;10.82;;;;;;;;;;5009686;28;20473;-74
2023/04/19 13:08:51;;;;;;;16.95;10.60;;;;;;;;;;4992395;28;20058;-74
2023/04/19 13:11:22;;;;;;;15.65;10.60;;;;;;;;;;5009087;28;20051;-74
2023/04/19 13:13:50;;;;;;;13.30;9.52;;;;;;;;;;4994161;28;20046;-75
2023/04/19 13:16:17;;;;;;;15.00;9.90;;;;;;;;;;4976472;28;20097;-74
2023/04/19 13:18:45;;;;;;;13.98;9.52;;;;;;;;;;4977398;28;20453;-74
2023/04/19 13:21:11;;;;;;;15.07;9.27;;;;;;;;;;4995262;28;20080;-73
2023/04/19 13:23:38;;;;;;;13.65;8.57;;;;;;;;;;4995152;28;20486;-74
2023/04/19 13:26:05;;;;;;;13.20;9.18;;;;;;;;;;4995084;28;20453;-74
2023/04/19 13:28:34;;;;;;;14.90;9.10;;;;;;;;;;4979406;28;20054;-75
2023/04/19 13:31:03;;;;;;;12.75;8.07;;;;;;;;;;4995588;28;20053;-78
2023/04/19 13:33:29;;;;;;;11.38;9.13;;;;;;;;;;4999663;28;20085;-76
2023/04/19 13:35:56;;;;;;;10.45;8.65;;;;;;;;;;5015031;28;20061;-76
2023/04/19 13:38:23;;;;;;;12.52;8.65;;;;;;;;;;4996570;28;20045;-77
2023/04/19 13:40:53;;;;;;;12.35;8.48;;;;;;;;;;4992475;28;20058;-76
2023/04/19 13:43:21;;;;;;;9.98;7.50;;;;;;;;;;4998682;28;20050;-76
2023/04/19 13:45:49;;;;;;;10.18;7.18;;;;;;;;;;4984245;28;20473;-75
2023/04/19 13:48:16;;;;;;;9.35;7.30;;;;;;;;;;4988030;28;20057;-76
2023/04/19 13:50:43;;;;;;;11.98;8.93;;;;;;;;;;4976801;28;20049;-76
2023/04/19 13:53:11;;;;;;;8.18;7.30;;;;;;;;;;4985435;28;20174;-75
2023/04/19 13:55:38;;;;;;;9.60;7.78;;;;;;;;;;4981002;28;20058;-77
2023/04/19 13:58:05;;;;;;;8.48;7.05;;;;;;;;;;5002358;28;20046;-78
2023/04/19 14:00:32;;;;;;;10.32;7.03;;;;;;;;;;4988877;28;20518;-77
2023/04/19 14:02:59;;;;;;;9.77;7.57;;;;;;;;;;4985476;28;20058;-77
2023/04/19 14:05:26;;;;;;;8.63;6.78;;;;;;;;;;4992584;28;20066;-78
2023/04/19 14:07:53;;;;;;;10.98;7.47;;;;;;;;;;4985363;28;20414;-76
2023/04/19 14:10:20;;;;;;;9.55;6.43;;;;;;;;;;4989201;28;20418;-77
2023/04/19 14:12:47;;;;;;;8.27;6.32;;;;;;;;;;4991926;28;20053;-77
2023/04/19 14:15:14;;;;;;;8.40;6.53;;;;;;;;;;4989872;28;20469;-77
2023/04/19 14:17:41;;;;;;;7.05;5.75;;;;;;;;;;4989536;28;20157;-77
2023/04/19 14:20:08;;;;;;;6.95;6.15;;;;;;;;;;4988206;28;20135;-77
2023/04/19 14:22:35;;;;;;;9.32;5.72;;;;;;;;;;4994642;28;20175;-77
2023/04/19 14:25:02;;;;;;;7.00;6.07;;;;;;;;;;5003229;28;20054;-77
2023/04/19 14:27:29;;;;;;;6.75;5.10;;;;;;;;;;4986064;28;20053;-77
2023/04/19 14:29:56;;;;;;;6.75;5.72;;;;;;;;;;4983899;28;20049;-77
2023/04/19 14:32:23;;;;;;;5.78;5.18;;;;;;;;;;4983240;28;20049;-78
2023/04/19 14:34:52;;;;;;;7.97;6.30;;;;;;;;;;4984972;28;20497;-78